createdAt,value
2022-10-24T00:00:13.976Z,21.80
2022-10-24T00:02:44.190Z,21.90
2022-10-24T00:05:17.506Z,21.90
2022-10-24T00:07:47.520Z,21.90
2022-10-24T00:10:18.557Z,21.90
2022-10-24T00:12:48.591Z,21.90
2022-10-24T00:15:18.943Z,22.00
2022-10-24T00:17:48.839Z,22.00
2022-10-24T00:20:18.761Z,22.00
2022-10-24T00:22:48.561Z,22.10
2022-10-24T00:25:18.780Z,22.10
2022-10-24T00:27:48.699Z,22.10
2022-10-24T00:30:18.833Z,22.20
2022-10-24T00:32:48.693Z,22.20
2022-10-24T00:35:18.592Z,22.20
2022-10-24T00:37:48.505Z,22.20
2022-10-24T00:40:20.437Z,22.30
2022-10-24T00:42:51.187Z,22.30
2022-10-24T00:45:46.214Z,22.40
2022-10-24T00:48:30.401Z,22.50
2022-10-24T00:51:23.259Z,22.50
2022-10-24T00:56:31.931Z,22.60
2022-10-24T00:59:04.327Z,22.70
2022-10-24T01:01:35.912Z,22.70
2022-10-24T01:04:06.371Z,22.80
2022-10-24T01:07:04.311Z,22.80
2022-10-24T01:10:02.809Z,22.90
2022-10-24T01:13:01.742Z,23.00
2022-10-24T01:15:57.859Z,23.10
2022-10-24T01:18:50.477Z,23.10
2022-10-24T01:21:42.196Z,23.20
2022-10-24T01:24:51.151Z,23.30
2022-10-24T01:27:41.481Z,23.40
2022-10-24T01:30:16.510Z,23.50
2022-10-24T01:33:06.374Z,23.60
2022-10-24T01:35:51.920Z,23.60
2022-10-24T01:38:44.036Z,23.70
2022-10-24T01:41:22.692Z,23.80
2022-10-24T01:44:06.719Z,23.90
2022-10-24T01:46:42.029Z,24.00
2022-10-24T01:49:22.422Z,24.00
2022-10-24T01:51:56.756Z,24.10
2022-10-24T01:54:26.832Z,24.20
2022-10-24T01:56:56.797Z,24.30
2022-10-24T01:59:47.456Z,24.30
2022-10-24T02:02:42.428Z,24.40
2022-10-24T02:05:23.360Z,24.40
2022-10-24T02:07:58.379Z,24.50
2022-10-24T02:10:39.738Z,24.50
2022-10-24T02:13:22.954Z,24.60
2022-10-24T02:15:56.397Z,24.70
2022-10-24T02:18:26.322Z,24.80
2022-10-24T02:21:35.198Z,24.80
2022-10-24T02:24:27.185Z,24.90
2022-10-24T02:27:35.921Z,24.90
2022-10-24T02:30:11.936Z,25.10
2022-10-24T02:32:46.437Z,25.20
2022-10-24T02:35:19.153Z,25.30
2022-10-24T02:37:53.629Z,25.40
2022-10-24T02:40:25.172Z,25.40
2022-10-24T02:42:58.277Z,25.50
2022-10-24T02:45:29.059Z,25.70
2022-10-24T02:48:04.739Z,25.80
2022-10-24T02:50:35.010Z,25.80
2022-10-24T02:53:04.665Z,25.90
2022-10-24T02:55:34.230Z,25.90
2022-10-24T02:58:03.724Z,26.00
2022-10-24T03:00:33.359Z,26.10
2022-10-24T03:03:03.216Z,26.20
2022-10-24T03:05:32.652Z,26.30
2022-10-24T03:08:02.171Z,26.40
2022-10-24T03:10:32.863Z,26.40
2022-10-24T03:13:03.422Z,26.60
2022-10-24T03:15:33.309Z,26.70
2022-10-24T03:18:03.166Z,26.80
2022-10-24T03:20:33.064Z,26.80
2022-10-24T03:23:03.072Z,26.90
2022-10-24T03:25:33.133Z,26.90
2022-10-24T03:28:03.387Z,27.00
2022-10-24T03:30:33.141Z,27.10
2022-10-24T03:33:02.940Z,27.10
2022-10-24T03:35:32.921Z,27.20
2022-10-24T03:38:02.883Z,27.20
2022-10-24T03:40:32.757Z,27.30
2022-10-24T03:43:03.059Z,27.40
2022-10-24T03:45:32.966Z,27.40
2022-10-24T03:48:02.937Z,27.50
2022-10-24T03:50:33.428Z,27.50
2022-10-24T03:53:04.230Z,27.60
2022-10-24T03:55:34.440Z,27.60
2022-10-24T03:58:04.576Z,27.60
2022-10-24T04:00:40.464Z,27.60
2022-10-24T04:03:11.383Z,27.70
2022-10-24T04:05:42.274Z,27.80
2022-10-24T04:08:12.239Z,27.90
2022-10-24T04:10:42.107Z,28.00
2022-10-24T04:13:12.800Z,28.10
2022-10-24T04:15:42.356Z,28.10
2022-10-24T04:18:11.888Z,28.20
2022-10-24T04:20:41.588Z,28.20
2022-10-24T04:23:11.210Z,28.30
2022-10-24T04:25:42.053Z,28.30
2022-10-24T04:28:11.893Z,28.30
2022-10-24T04:33:10.839Z,28.40
2022-10-24T04:35:40.614Z,28.50
2022-10-24T04:38:10.195Z,28.50
2022-10-24T04:40:39.595Z,28.60
2022-10-24T04:43:09.266Z,28.60
2022-10-24T04:45:38.741Z,28.60
2022-10-24T04:48:08.554Z,28.70
2022-10-24T04:50:38.651Z,28.70
2022-10-24T04:53:08.181Z,28.80
2022-10-24T04:58:08.136Z,28.80
2022-10-24T05:00:37.830Z,28.90
2022-10-24T05:03:07.730Z,28.90
2022-10-24T05:05:37.264Z,29.00
2022-10-24T05:08:07.021Z,29.00
2022-10-24T05:10:36.500Z,29.10
2022-10-24T05:13:06.275Z,29.20
2022-10-24T05:15:36.882Z,29.20
2022-10-24T05:18:06.763Z,29.20
2022-10-24T05:20:36.667Z,29.20
2022-10-24T05:23:06.740Z,29.30
2022-10-24T05:25:36.883Z,29.30
2022-10-24T05:28:06.790Z,29.40
2022-10-24T05:30:36.714Z,29.40
2022-10-24T05:33:06.651Z,29.40
2022-10-24T05:35:36.546Z,29.50
2022-10-24T05:38:06.646Z,29.60
2022-10-24T05:40:36.539Z,29.50
2022-10-24T05:43:06.371Z,29.60
2022-10-24T05:45:37.268Z,29.60
2022-10-24T05:48:07.550Z,29.70
2022-10-24T05:50:38.112Z,29.70
2022-10-24T05:53:10.348Z,29.80
2022-10-24T05:55:40.238Z,29.80
2022-10-24T05:58:10.244Z,29.80
2022-10-24T06:00:40.163Z,29.90
2022-10-24T06:03:11.045Z,29.90
2022-10-24T06:05:40.961Z,29.90
2022-10-24T06:08:11.567Z,30.00
2022-10-24T06:10:41.399Z,30.00
2022-10-24T06:13:11.366Z,30.10
2022-10-24T06:15:42.931Z,30.10
2022-10-24T06:18:12.548Z,30.10
2022-10-24T06:20:42.035Z,30.10
2022-10-24T06:23:11.550Z,30.10
2022-10-24T06:25:44.355Z,30.10
2022-10-24T06:28:16.493Z,30.10
2022-10-24T06:30:46.399Z,30.10
2022-10-24T06:33:16.046Z,30.10
2022-10-24T06:35:45.554Z,30.10
2022-10-24T06:38:15.408Z,30.20
2022-10-24T06:40:44.926Z,30.20
2022-10-24T06:43:14.468Z,30.20
2022-10-24T06:45:44.300Z,30.20
2022-10-24T06:48:13.964Z,30.30
2022-10-24T06:50:43.477Z,30.30
2022-10-24T06:53:13.419Z,30.40
2022-10-24T06:55:43.026Z,30.40
2022-10-24T06:58:12.543Z,30.40
2022-10-24T07:00:42.104Z,30.40
2022-10-24T07:03:17.228Z,30.40
2022-10-24T07:05:47.107Z,30.50
2022-10-24T07:08:16.616Z,30.50
2022-10-24T07:10:46.155Z,30.50
2022-10-24T07:13:16.014Z,30.40
2022-10-24T07:15:46.540Z,30.40
2022-10-24T07:18:17.906Z,30.40
2022-10-24T07:20:48.191Z,30.40
2022-10-24T07:23:18.640Z,30.40
2022-10-24T07:25:48.924Z,30.30
2022-10-24T07:28:18.793Z,30.30
2022-10-24T07:30:48.701Z,30.30
2022-10-24T07:33:18.626Z,30.40
2022-10-24T07:35:48.449Z,30.40
2022-10-24T07:38:18.938Z,30.40
2022-10-24T07:40:49.092Z,30.40
2022-10-24T07:43:19.444Z,30.50
2022-10-24T07:45:52.057Z,30.50
2022-10-24T07:48:21.933Z,30.50
2022-10-24T07:50:51.478Z,30.60
2022-10-24T07:53:20.975Z,30.60
2022-10-24T07:55:50.751Z,30.60
2022-10-24T07:58:20.539Z,30.60
2022-10-24T08:00:50.069Z,30.60
2022-10-24T08:03:19.596Z,30.60
2022-10-24T08:05:49.890Z,30.60
2022-10-24T08:08:34.932Z,30.60
2022-10-24T08:11:11.759Z,30.60
2022-10-24T08:13:41.554Z,30.60
2022-10-24T08:16:13.765Z,30.60
2022-10-24T08:18:43.392Z,30.60
2022-10-24T08:21:14.871Z,30.60
2022-10-24T08:23:48.746Z,30.70
2022-10-24T08:26:22.078Z,30.80
2022-10-24T08:28:52.533Z,30.70
2022-10-24T08:31:25.012Z,30.80
2022-10-24T08:33:56.485Z,30.70
2022-10-24T08:36:30.513Z,30.80
2022-10-24T08:39:01.472Z,30.70
2022-10-24T08:41:41.991Z,30.70
2022-10-24T08:44:37.308Z,30.60
2022-10-24T08:47:33.004Z,30.60
2022-10-24T08:50:15.269Z,30.50
2022-10-24T08:52:57.025Z,30.50
2022-10-24T08:55:49.799Z,30.40
2022-10-24T08:58:28.660Z,30.50
2022-10-24T09:01:02.426Z,30.40
2022-10-24T09:03:57.265Z,30.40
2022-10-24T09:06:31.957Z,30.40
2022-10-24T09:09:22.862Z,30.50
2022-10-24T09:12:17.706Z,30.40
2022-10-24T09:14:52.537Z,30.50
2022-10-24T09:17:38.842Z,30.50
2022-10-24T09:20:32.392Z,30.40
2022-10-24T09:23:06.255Z,30.40
2022-10-24T09:25:38.787Z,30.40
2022-10-24T09:28:14.488Z,30.40
2022-10-24T09:30:44.682Z,30.30
2022-10-24T09:33:29.486Z,30.30
2022-10-24T09:36:02.933Z,30.30
2022-10-24T09:38:38.474Z,30.20
2022-10-24T09:41:28.487Z,30.20
2022-10-24T09:44:02.134Z,30.10
2022-10-24T09:46:46.728Z,30.10
2022-10-24T09:49:25.696Z,30.10
2022-10-24T09:52:20.443Z,30.00
2022-10-24T09:55:08.338Z,30.00
2022-10-24T09:57:43.112Z,30.00
2022-10-24T10:00:36.316Z,30.00
2022-10-24T10:03:24.081Z,29.80
2022-10-24T10:05:58.725Z,29.80
2022-10-24T10:08:34.463Z,29.80
2022-10-24T10:11:14.281Z,29.70
2022-10-24T10:13:56.375Z,29.70
2022-10-24T10:16:29.915Z,29.60
2022-10-24T10:19:17.757Z,29.60
2022-10-24T10:22:01.322Z,29.50
2022-10-24T10:24:47.801Z,29.40
2022-10-24T10:27:42.763Z,29.40
2022-10-24T10:30:23.299Z,29.30
2022-10-24T10:33:22.550Z,29.20
2022-10-24T10:36:31.231Z,29.20
2022-10-24T10:39:31.779Z,29.10
2022-10-24T10:42:15.348Z,28.90
2022-10-24T10:45:13.466Z,28.90
2022-10-24T10:48:22.183Z,28.80
2022-10-24T10:51:28.354Z,28.70
2022-10-24T10:54:21.810Z,28.60
2022-10-24T10:57:05.187Z,28.50
2022-10-24T10:59:54.752Z,28.40
2022-10-24T11:03:03.723Z,28.30
2022-10-24T11:05:54.257Z,28.10
2022-10-24T11:08:59.523Z,28.00
2022-10-24T11:11:43.149Z,28.00
2022-10-24T11:14:37.544Z,27.80
2022-10-24T11:17:27.160Z,27.80
2022-10-24T11:20:09.644Z,27.60
2022-10-24T11:22:50.636Z,27.60
2022-10-24T11:25:44.240Z,27.50
2022-10-24T11:28:42.902Z,27.40
2022-10-24T11:31:32.277Z,27.40
2022-10-24T11:34:33.987Z,27.30
2022-10-24T11:37:12.284Z,27.30
2022-10-24T11:40:00.171Z,27.20
2022-10-24T11:42:36.291Z,27.10
2022-10-24T11:45:20.993Z,27.00
2022-10-24T11:48:23.062Z,27.00
2022-10-24T11:51:00.870Z,26.90
2022-10-24T11:54:06.529Z,26.80
2022-10-24T11:56:58.318Z,26.80
2022-10-24T11:59:27.879Z,26.70
2022-10-24T12:02:31.514Z,26.70
2022-10-24T12:08:37.591Z,26.60
2022-10-24T12:11:26.169Z,26.50
2022-10-24T12:14:23.624Z,26.50
2022-10-24T12:17:32.438Z,26.40
2022-10-24T12:20:03.704Z,26.40
2022-10-24T12:22:41.990Z,26.30
2022-10-24T12:25:40.323Z,26.30
2022-10-24T12:28:25.262Z,26.30
2022-10-24T12:31:34.026Z,26.20
2022-10-24T12:34:32.630Z,26.20
2022-10-24T12:37:37.103Z,26.10
2022-10-24T12:40:45.778Z,26.10
2022-10-24T12:43:25.617Z,26.00
2022-10-24T12:45:55.456Z,26.00
2022-10-24T12:48:37.720Z,26.00
2022-10-24T12:51:28.337Z,25.90
2022-10-24T12:54:18.945Z,25.90
2022-10-24T12:57:23.410Z,25.80
2022-10-24T13:00:02.247Z,25.80
2022-10-24T13:03:01.722Z,25.80
2022-10-24T13:06:04.742Z,25.70
2022-10-24T13:09:13.406Z,25.70
2022-10-24T13:12:22.229Z,25.70
2022-10-24T13:15:30.881Z,25.60
2022-10-24T13:18:26.116Z,25.60
2022-10-24T13:21:19.111Z,25.50
2022-10-24T13:23:51.353Z,25.50
2022-10-24T13:26:48.880Z,25.50
2022-10-24T13:29:57.630Z,25.40
2022-10-24T13:32:36.684Z,25.40
2022-10-24T13:35:07.825Z,25.30
2022-10-24T13:37:48.416Z,25.30
2022-10-24T13:40:34.572Z,25.30
2022-10-24T13:43:16.278Z,25.30
2022-10-24T13:46:03.422Z,25.20
2022-10-24T13:48:37.149Z,25.10
2022-10-24T13:51:30.728Z,25.10
2022-10-24T13:54:25.675Z,25.10
2022-10-24T13:56:58.360Z,25.10
2022-10-24T13:59:38.780Z,25.10
2022-10-24T14:02:16.798Z,25.00
2022-10-24T14:04:48.668Z,25.00
2022-10-24T14:07:27.663Z,25.00
2022-10-24T14:10:02.068Z,24.90
2022-10-24T14:12:34.441Z,24.90
2022-10-24T14:15:04.717Z,24.90
2022-10-24T14:17:37.462Z,24.90
2022-10-24T14:20:28.678Z,24.80
2022-10-24T14:22:59.200Z,24.80
2022-10-24T14:25:45.415Z,24.70
2022-10-24T14:28:21.994Z,24.70
2022-10-24T14:31:01.940Z,24.70
2022-10-24T14:33:33.737Z,24.60
2022-10-24T14:36:05.649Z,24.60
2022-10-24T14:38:36.140Z,24.60
2022-10-24T14:41:09.306Z,24.50
2022-10-24T14:43:45.798Z,24.50
2022-10-24T14:46:32.937Z,24.50
2022-10-24T14:49:41.581Z,24.50
2022-10-24T14:52:40.672Z,24.50
2022-10-24T14:55:26.323Z,24.40
2022-10-24T14:57:56.762Z,24.50
2022-10-24T15:00:28.573Z,24.40
2022-10-24T15:03:00.969Z,24.40
2022-10-24T15:05:36.526Z,24.40
2022-10-24T15:08:27.899Z,24.40
2022-10-24T15:11:08.472Z,24.30
2022-10-24T15:13:50.939Z,24.30
2022-10-24T15:16:36.986Z,24.30
2022-10-24T15:19:08.862Z,24.30
2022-10-24T15:21:43.272Z,24.30
2022-10-24T15:24:25.699Z,24.30
2022-10-24T15:27:12.273Z,24.30
2022-10-24T15:29:42.816Z,24.20
2022-10-24T15:32:13.226Z,24.20
2022-10-24T15:34:42.758Z,24.20
2022-10-24T15:37:24.085Z,24.20
2022-10-24T15:39:55.760Z,24.20
2022-10-24T15:42:25.385Z,24.20
2022-10-24T15:44:54.874Z,24.20
2022-10-24T15:47:25.635Z,24.10
2022-10-24T15:49:55.297Z,24.10
2022-10-24T15:52:24.867Z,24.10
2022-10-24T15:54:54.456Z,24.10
2022-10-24T15:57:24.105Z,24.10
2022-10-24T15:59:53.644Z,24.00
2022-10-24T16:02:25.911Z,24.00
2022-10-24T16:04:55.474Z,24.00
2022-10-24T16:07:25.418Z,24.00
2022-10-24T16:09:55.014Z,24.00
2022-10-24T16:12:24.522Z,24.00
2022-10-24T16:14:53.956Z,24.00
2022-10-24T16:17:23.483Z,24.00
2022-10-24T16:19:53.087Z,23.90
2022-10-24T16:22:22.699Z,23.90
2022-10-24T16:24:53.094Z,23.90
2022-10-24T16:27:22.946Z,23.90
2022-10-24T16:29:53.138Z,23.80
2022-10-24T16:32:23.062Z,23.80
2022-10-24T16:34:54.066Z,23.80
2022-10-24T16:37:23.852Z,23.80
2022-10-24T16:39:53.825Z,23.80
2022-10-24T16:42:25.697Z,23.70
2022-10-24T16:44:55.622Z,23.70
2022-10-24T16:47:25.524Z,23.70
2022-10-24T16:49:59.326Z,23.70
2022-10-24T16:52:30.510Z,23.70
2022-10-24T16:55:00.372Z,23.70
2022-10-24T16:57:30.216Z,23.60
2022-10-24T17:00:00.063Z,23.60
2022-10-24T17:02:30.172Z,23.60
2022-10-24T17:05:00.090Z,23.60
2022-10-24T17:07:30.231Z,23.50
2022-10-24T17:10:00.105Z,23.60
2022-10-24T17:12:30.078Z,23.50
2022-10-24T17:14:59.979Z,23.50
2022-10-24T17:17:29.969Z,23.50
2022-10-24T17:19:59.846Z,23.40
2022-10-24T17:22:30.086Z,23.50
2022-10-24T17:25:00.889Z,23.40
2022-10-24T17:27:31.022Z,23.40
2022-10-24T17:30:01.463Z,23.40
2022-10-24T17:32:31.516Z,23.40
2022-10-24T17:35:02.066Z,23.40
2022-10-24T17:38:03.760Z,23.40
2022-10-24T17:40:42.968Z,23.40
2022-10-24T17:43:27.249Z,23.40
2022-10-24T17:45:58.811Z,23.40
2022-10-24T17:48:28.753Z,23.40
2022-10-24T17:50:59.849Z,23.40
2022-10-24T17:53:29.672Z,23.40
2022-10-24T17:55:59.544Z,23.30
2022-10-24T17:58:29.539Z,23.30
2022-10-24T18:00:59.460Z,23.30
2022-10-24T18:03:30.478Z,23.30
2022-10-24T18:06:08.065Z,23.30
2022-10-24T18:08:37.914Z,23.30
2022-10-24T18:11:10.836Z,23.30
2022-10-24T18:13:41.701Z,23.30
2022-10-24T18:16:13.571Z,23.30
2022-10-24T18:18:44.779Z,23.30
2022-10-24T18:21:26.429Z,23.20
2022-10-24T18:23:57.519Z,23.20
2022-10-24T18:26:28.941Z,23.20
2022-10-24T18:28:59.704Z,23.20
2022-10-24T18:31:31.793Z,23.20
2022-10-24T18:34:06.310Z,23.20
2022-10-24T18:36:38.535Z,23.20
2022-10-24T18:39:08.745Z,23.20
2022-10-24T18:41:50.906Z,23.20
2022-10-24T18:44:32.469Z,23.20
2022-10-24T18:47:05.580Z,23.20
2022-10-24T18:49:38.182Z,23.20
2022-10-24T18:52:46.863Z,23.20
2022-10-24T18:55:24.401Z,23.20
2022-10-24T18:57:54.714Z,23.20
2022-10-24T19:00:26.977Z,23.20
2022-10-24T19:03:37.387Z,23.20
2022-10-24T19:06:27.647Z,23.10
2022-10-24T19:08:57.291Z,23.10
2022-10-24T19:11:26.908Z,23.00
2022-10-24T19:13:56.855Z,23.00
2022-10-24T19:16:30.265Z,23.00
2022-10-24T19:19:04.031Z,22.90
2022-10-24T19:21:33.567Z,22.90
2022-10-24T19:24:04.166Z,22.90
2022-10-24T19:26:34.044Z,22.90
2022-10-24T19:29:05.764Z,22.90
2022-10-24T19:31:36.097Z,22.90
2022-10-24T19:34:06.110Z,22.90
2022-10-24T19:36:36.009Z,22.90
2022-10-24T19:39:06.004Z,22.90
2022-10-24T19:41:37.160Z,22.90
2022-10-24T19:44:07.641Z,22.80
2022-10-24T19:46:37.533Z,22.80
2022-10-24T19:49:07.583Z,22.80
2022-10-24T19:51:37.498Z,22.80
2022-10-24T19:54:07.461Z,22.80
2022-10-24T19:56:37.327Z,22.70
2022-10-24T19:59:07.366Z,22.80
2022-10-24T20:01:39.291Z,22.70
2022-10-24T20:04:09.212Z,22.70
2022-10-24T20:06:39.082Z,22.70
2022-10-24T20:09:08.830Z,22.70
2022-10-24T20:11:38.793Z,22.70
2022-10-24T20:14:08.760Z,22.60
2022-10-24T20:16:38.697Z,22.60
2022-10-24T20:19:08.807Z,22.60
2022-10-24T20:21:39.228Z,22.60
2022-10-24T20:24:09.683Z,22.60
2022-10-24T20:26:39.377Z,22.50
2022-10-24T20:29:09.064Z,22.50
2022-10-24T20:31:41.208Z,22.50
2022-10-24T20:34:11.922Z,22.50
2022-10-24T20:36:49.738Z,22.50
2022-10-24T20:39:22.526Z,22.50
2022-10-24T20:41:54.160Z,22.50
2022-10-24T20:44:24.139Z,22.50
2022-10-24T20:46:56.965Z,22.40
2022-10-24T20:49:26.826Z,22.50
2022-10-24T20:51:56.325Z,22.40
2022-10-24T20:54:25.922Z,22.40
2022-10-24T20:56:55.490Z,22.50
2022-10-24T20:59:25.071Z,22.50
2022-10-24T21:01:54.709Z,22.40
2022-10-24T21:04:24.361Z,22.40
2022-10-24T21:06:53.851Z,22.40
2022-10-24T21:09:23.592Z,22.40
2022-10-24T21:11:53.068Z,22.40
2022-10-24T21:14:22.572Z,22.40
2022-10-24T21:16:52.172Z,22.40
2022-10-24T21:19:21.650Z,22.30
2022-10-24T21:21:51.106Z,22.30
2022-10-24T21:24:21.647Z,22.30
2022-10-24T21:26:51.999Z,22.30
2022-10-24T21:29:32.760Z,22.30
2022-10-24T21:32:03.827Z,22.30
2022-10-24T21:34:34.838Z,22.30
2022-10-24T21:37:06.396Z,22.30
2022-10-24T21:39:36.249Z,22.30
2022-10-24T21:42:07.116Z,22.20
2022-10-24T21:44:37.408Z,22.20
2022-10-24T21:47:07.292Z,22.20
2022-10-24T21:49:37.106Z,22.20
2022-10-24T21:52:07.112Z,22.20
2022-10-24T21:54:37.021Z,22.20
2022-10-24T21:57:06.984Z,22.20
2022-10-24T21:59:37.798Z,22.20
2022-10-24T22:02:07.814Z,22.20
2022-10-24T22:04:37.772Z,22.20
2022-10-24T22:07:08.858Z,22.20
2022-10-24T22:09:38.666Z,22.10
2022-10-24T22:12:08.712Z,22.10
2022-10-24T22:14:38.553Z,22.10
2022-10-24T22:17:08.648Z,22.10
2022-10-24T22:19:38.465Z,22.10
2022-10-24T22:22:08.335Z,22.10
2022-10-24T22:24:39.680Z,22.10
2022-10-24T22:27:09.422Z,22.00
2022-10-24T22:29:38.918Z,22.10
2022-10-24T22:32:08.726Z,22.10
2022-10-24T22:34:38.482Z,22.10
2022-10-24T22:37:29.587Z,22.10
2022-10-24T22:39:59.561Z,22.00
2022-10-24T22:42:29.239Z,22.10
2022-10-24T22:44:59.245Z,22.10
2022-10-24T22:47:58.808Z,22.10
2022-10-24T22:50:52.931Z,22.00
2022-10-24T22:53:28.410Z,22.10
2022-10-24T22:56:16.216Z,22.00
2022-10-24T22:58:47.657Z,22.00
2022-10-24T23:01:38.495Z,22.00
2022-10-24T23:04:45.407Z,22.00
2022-10-24T23:07:47.442Z,22.00
2022-10-24T23:10:24.620Z,22.00
2022-10-24T23:12:54.911Z,22.00
2022-10-24T23:15:24.776Z,22.00
2022-10-24T23:17:54.767Z,21.90
2022-10-24T23:20:43.255Z,21.90
2022-10-24T23:23:28.732Z,21.90
2022-10-24T23:26:10.376Z,21.90
2022-10-24T23:28:52.906Z,21.90
2022-10-24T23:31:22.948Z,21.90
2022-10-24T23:33:53.184Z,21.90
2022-10-24T23:36:26.624Z,21.90
2022-10-24T23:38:59.530Z,21.90
2022-10-24T23:41:29.722Z,21.90
2022-10-24T23:43:59.850Z,21.90
2022-10-24T23:46:39.329Z,21.90
2022-10-24T23:49:41.819Z,21.90
2022-10-24T23:52:48.558Z,22.00
2022-10-24T23:55:19.775Z,22.00
2022-10-24T23:57:49.666Z,21.90
